Time;durP1;ratioP1;P1;durP2;ratioP2;P2;SDS_P1;SDS_P2;PMS_P1;PMS_P2;Temp;Humidity;BMP_temperature;BMP_pressure;BME280_temperature;BME280_humidity;BME280_pressure;Samples;Min_cycle;Max_cycle;Signal;HPM_P1;HPM_P2
2022/02/07 00:00:20;;;;;;;0.45;0.30;;;;;;;;;;5029388;28;20029;-81
2022/02/07 00:05:27;;;;;;;0.85;0.32;;;;;;;;;;5047759;28;20030;-80
2022/02/07 00:07:54;;;;;;;1.15;0.40;;;;;;;;;;5029415;28;20018;-81
2022/02/07 00:10:20;;;;;;;0.80;0.30;;;;;;;;;;5028945;28;20029;-81
2022/02/07 00:12:46;;;;;;;0.70;0.30;;;;;;;;;;5029026;28;20364;-81
2022/02/07 00:15:13;;;;;;;1.05;0.50;;;;;;;;;;5029872;28;20098;-81
2022/02/07 00:17:39;;;;;;;0.88;0.40;;;;;;;;;;5048039;28;20444;-81
2022/02/07 00:20:11;;;;;;;0.65;0.40;;;;;;;;;;5029497;28;20022;-81
2022/02/07 00:22:37;;;;;;;1.15;0.47;;;;;;;;;;5028806;28;20022;-81
2022/02/07 00:25:04;;;;;;;0.75;0.38;;;;;;;;;;5047833;28;20056;-81
2022/02/07 00:27:30;;;;;;;1.38;0.40;;;;;;;;;;5046633;28;20041;-80
2022/02/07 00:29:57;;;;;;;1.20;0.50;;;;;;;;;;5046610;28;20060;-82
2022/02/07 00:32:23;;;;;;;0.65;0.35;;;;;;;;;;5029247;28;20123;-81
2022/02/07 00:34:49;;;;;;;0.95;0.40;;;;;;;;;;5029186;28;20029;-80
2022/02/07 00:37:15;;;;;;;1.55;0.50;;;;;;;;;;5040207;28;20029;-81
2022/02/07 00:39:53;;;;;;;1.80;0.43;;;;;;;;;;5064907;28;20045;-81
2022/02/07 00:42:26;;;;;;;0.57;0.40;;;;;;;;;;5066138;28;20405;-80
2022/02/07 00:44:55;;;;;;;0.95;0.40;;;;;;;;;;5067456;28;20043;-81
2022/02/07 00:47:22;;;;;;;1.48;0.40;;;;;;;;;;5048916;28;20033;-81
2022/02/07 00:49:48;;;;;;;0.47;0.30;;;;;;;;;;5028594;28;20018;-80
2022/02/07 00:52:14;;;;;;;0.45;0.30;;;;;;;;;;5026619;28;20026;-79
2022/02/07 00:54:40;;;;;;;0.50;0.30;;;;;;;;;;5008590;28;20076;-80
2022/02/07 00:57:06;;;;;;;1.10;0.40;;;;;;;;;;5009158;28;20026;-81
2022/02/07 00:59:32;;;;;;;0.50;0.35;;;;;;;;;;5027448;28;20034;-81
2022/02/07 01:01:59;;;;;;;1.58;0.38;;;;;;;;;;5028622;28;20040;-82
2022/02/07 01:04:25;;;;;;;0.65;0.30;;;;;;;;;;5041562;28;20500;-80
2022/02/07 01:06:51;;;;;;;1.15;0.40;;;;;;;;;;5065413;28;20058;-82
2022/02/07 01:09:26;;;;;;;1.00;0.40;;;;;;;;;;5050741;28;20087;-79
2022/02/07 01:14:49;;;;;;;1.73;0.60;;;;;;;;;;5008178;28;20057;-81
2022/02/07 01:22:38;;;;;;;1.02;0.43;;;;;;;;;;5045814;28;20071;-80
2022/02/07 01:55:36;;;;;;;0.80;0.30;;;;;;;;;;5045816;28;20117;-81
2022/02/07 01:57:57;;;;;;;1.52;0.40;;;;;;;;;;5047949;28;20036;-80
2022/02/07 02:00:23;;;;;;;1.25;0.40;;;;;;;;;;5049617;28;20028;-80
2022/02/07 02:02:49;;;;;;;0.60;0.40;;;;;;;;;;5049397;28;20081;-81
2022/02/07 02:05:17;;;;;;;1.45;0.40;;;;;;;;;;5030436;28;20049;-81
2022/02/07 02:07:44;;;;;;;0.77;0.40;;;;;;;;;;5029886;28;20090;-80
2022/02/07 02:10:11;;;;;;;1.45;0.50;;;;;;;;;;5046426;28;20485;-82
2022/02/07 02:13:23;;;;;;;0.55;0.40;;;;;;;;;;5028417;28;20464;-81
2022/02/07 02:47:29;;;;;;;1.17;0.50;;;;;;;;;;5048452;28;20048;-81
2022/02/07 02:50:05;;;;;;;0.75;0.40;;;;;;;;;;5041403;28;20024;-81
2022/02/07 02:52:32;;;;;;;1.02;0.40;;;;;;;;;;5067660;28;20036;-81
2022/02/07 02:54:58;;;;;;;0.50;0.30;;;;;;;;;;5051397;28;20512;-81
2022/02/07 02:57:24;;;;;;;1.52;0.50;;;;;;;;;;5055573;28;20025;-79
2022/02/07 02:59:51;;;;;;;0.95;0.40;;;;;;;;;;5029805;28;20028;-80
2022/02/07 03:02:17;;;;;;;1.10;0.40;;;;;;;;;;5030066;28;20033;-80
2022/02/07 03:04:46;;;;;;;0.68;0.30;;;;;;;;;;5032131;28;20059;-82
2022/02/07 03:07:12;;;;;;;0.55;0.40;;;;;;;;;;5065920;28;20071;-81
2022/02/07 03:09:46;;;;;;;1.67;0.50;;;;;;;;;;5053492;28;20022;-82
2022/02/07 03:12:13;;;;;;;0.98;0.50;;;;;;;;;;5048177;28;20052;-82
2022/02/07 03:14:44;;;;;;;0.60;0.40;;;;;;;;;;5052007;28;20018;-81
2022/02/07 03:17:10;;;;;;;1.00;0.60;;;;;;;;;;5056246;28;20026;-82
2022/02/07 03:19:36;;;;;;;1.08;0.50;;;;;;;;;;5048051;28;20025;-81
2022/02/07 03:22:02;;;;;;;0.60;0.40;;;;;;;;;;5057858;28;20075;-82
2022/02/07 03:24:28;;;;;;;1.40;0.70;;;;;;;;;;5066345;28;20013;-81
2022/02/07 03:26:55;;;;;;;3.65;0.60;;;;;;;;;;5060605;28;20048;-80
2022/02/07 03:29:21;;;;;;;2.80;1.13;;;;;;;;;;5047540;28;20021;-80
2022/02/07 03:31:47;;;;;;;1.38;0.60;;;;;;;;;;5047693;28;20044;-80
2022/02/07 03:34:13;;;;;;;2.13;0.60;;;;;;;;;;5029753;28;20032;-81
2022/02/07 03:36:40;;;;;;;1.20;0.60;;;;;;;;;;5043787;28;20029;-81
2022/02/07 03:39:06;;;;;;;2.15;0.80;;;;;;;;;;5065704;28;20025;-81
2022/02/07 03:41:33;;;;;;;1.52;0.65;;;;;;;;;;5066804;28;20025;-81
2022/02/07 03:43:59;;;;;;;1.35;0.60;;;;;;;;;;5067346;28;20041;-81
2022/02/07 03:46:25;;;;;;;1.23;0.60;;;;;;;;;;5064021;28;20028;-82
2022/02/07 03:48:51;;;;;;;1.10;0.57;;;;;;;;;;5029827;28;20025;-84
2022/02/07 03:51:17;;;;;;;1.70;0.80;;;;;;;;;;5033090;28;20025;-82
2022/02/07 03:53:44;;;;;;;1.63;0.60;;;;;;;;;;5067169;28;20025;-81
2022/02/07 03:56:10;;;;;;;1.35;0.70;;;;;;;;;;5067090;28;20609;-81
2022/02/07 03:58:36;;;;;;;1.23;0.60;;;;;;;;;;5064548;28;20033;-82
2022/02/07 04:01:03;;;;;;;1.88;0.60;;;;;;;;;;5035292;28;20020;-81
2022/02/07 04:03:32;;;;;;;1.65;0.60;;;;;;;;;;5055464;28;20389;-82
2022/02/07 04:06:05;;;;;;;1.75;0.60;;;;;;;;;;5047738;28;20021;-81
2022/02/07 04:08:44;;;;;;;1.25;0.60;;;;;;;;;;5031928;28;20102;-83
2022/02/07 04:11:34;;;;;;;1.13;0.60;;;;;;;;;;5031208;28;20030;-82
2022/02/07 04:14:01;;;;;;;1.40;0.65;;;;;;;;;;5022662;28;20033;-83
2022/02/07 04:16:35;;;;;;;0.88;0.50;;;;;;;;;;5042347;28;20113;-81
2022/02/07 04:19:07;;;;;;;1.30;0.60;;;;;;;;;;5048530;28;20024;-82
2022/02/07 04:21:33;;;;;;;1.58;0.70;;;;;;;;;;5029677;28;20030;-82
2022/02/07 04:24:00;;;;;;;0.88;0.50;;;;;;;;;;5028798;28;20052;-82
2022/02/07 04:26:26;;;;;;;0.90;0.50;;;;;;;;;;5029745;28;20032;-82
2022/02/07 04:28:52;;;;;;;1.35;0.50;;;;;;;;;;5029074;28;20018;-82
2022/02/07 04:31:19;;;;;;;1.48;0.65;;;;;;;;;;5017307;28;20037;-82
2022/02/07 04:33:45;;;;;;;1.30;0.60;;;;;;;;;;5025574;28;20116;-81
2022/02/07 04:36:11;;;;;;;1.35;0.60;;;;;;;;;;5029950;28;20018;-80
2022/02/07 04:38:37;;;;;;;1.10;0.50;;;;;;;;;;5048597;28;20021;-80
2022/02/07 04:41:06;;;;;;;1.75;0.60;;;;;;;;;;5064980;28;20036;-80
2022/02/07 04:43:34;;;;;;;1.80;0.63;;;;;;;;;;5059210;28;20471;-80
2022/02/07 04:46:22;;;;;;;3.70;1.00;;;;;;;;;;5047107;28;20017;-81
2022/02/07 04:54:17;;;;;;;0.90;0.50;;;;;;;;;;5046785;28;20025;-82
2022/02/07 04:57:07;;;;;;;1.38;0.68;;;;;;;;;;5029371;28;20018;-82
2022/02/07 05:02:26;;;;;;;1.77;0.68;;;;;;;;;;5047048;28;20041;-80
2022/02/07 05:15:45;;;;;;;2.03;0.90;;;;;;;;;;5046717;28;20037;-82
2022/02/07 05:18:11;;;;;;;3.38;1.33;;;;;;;;;;5047183;28;20025;-82
2022/02/07 05:20:37;;;;;;;2.78;1.05;;;;;;;;;;5029311;28;20048;-82
2022/02/07 05:23:03;;;;;;;2.97;1.20;;;;;;;;;;5048152;28;20025;-82
2022/02/07 05:25:30;;;;;;;2.00;0.90;;;;;;;;;;5030175;28;20501;-83
2022/02/07 05:27:56;;;;;;;3.03;1.15;;;;;;;;;;5048396;28;20021;-81
2022/02/07 05:30:22;;;;;;;3.35;1.23;;;;;;;;;;5029203;28;20025;-82
2022/02/07 05:32:48;;;;;;;3.47;1.17;;;;;;;;;;5046154;28;20014;-82
2022/02/07 05:35:14;;;;;;;1.92;0.85;;;;;;;;;;5044018;28;20045;-82
2022/02/07 05:37:41;;;;;;;2.72;0.95;;;;;;;;;;5027065;28;20025;-81
2022/02/07 05:40:13;;;;;;;2.80;1.30;;;;;;;;;;5026071;28;20153;-82
2022/02/07 05:42:39;;;;;;;2.97;1.00;;;;;;;;;;5043694;28;20021;-81
2022/02/07 05:45:09;;;;;;;3.60;1.40;;;;;;;;;;5027237;28;20030;-81
2022/02/07 05:47:36;;;;;;;6.13;2.15;;;;;;;;;;5027311;28;20021;-82
2022/02/07 05:50:03;;;;;;;3.97;1.35;;;;;;;;;;5027402;28;20014;-83
2022/02/07 05:52:29;;;;;;;4.40;1.40;;;;;;;;;;5027067;28;20025;-80
2022/02/07 05:54:56;;;;;;;2.55;0.82;;;;;;;;;;5040936;28;20385;-80
2022/02/07 05:57:22;;;;;;;1.75;0.80;;;;;;;;;;5063225;28;20032;-81
2022/02/07 05:59:48;;;;;;;2.17;0.73;;;;;;;;;;5064409;28;20021;-82
2022/02/07 06:02:14;;;;;;;3.20;1.05;;;;;;;;;;5048133;28;20084;-81
2022/02/07 06:04:40;;;;;;;1.95;0.60;;;;;;;;;;5047225;28;20040;-83
2022/02/07 06:07:06;;;;;;;1.00;0.50;;;;;;;;;;5063934;28;20025;-80
2022/02/07 06:09:32;;;;;;;0.95;0.50;;;;;;;;;;5063974;28;20037;-80
2022/02/07 06:12:02;;;;;;;1.73;0.50;;;;;;;;;;5049616;28;20059;-79
2022/02/07 06:14:28;;;;;;;1.15;0.57;;;;;;;;;;5025637;28;20083;-81
2022/02/07 06:16:54;;;;;;;1.40;0.50;;;;;;;;;;5029670;28;20493;-80
2022/02/07 06:19:20;;;;;;;1.45;0.40;;;;;;;;;;5063033;28;20017;-80
2022/02/07 06:21:46;;;;;;;1.40;0.60;;;;;;;;;;5049686;28;20026;-80
2022/02/07 06:24:13;;;;;;;1.05;0.43;;;;;;;;;;5030341;28;20022;-81
2022/02/07 06:26:39;;;;;;;1.27;0.43;;;;;;;;;;5048535;28;20028;-81
2022/02/07 06:29:07;;;;;;;1.80;0.80;;;;;;;;;;5030193;28;20049;-80
2022/02/07 06:31:33;;;;;;;2.33;0.57;;;;;;;;;;5051049;28;20117;-81
2022/02/07 06:33:59;;;;;;;2.22;0.73;;;;;;;;;;5064925;28;20029;-80
2022/02/07 06:36:25;;;;;;;1.45;0.60;;;;;;;;;;5063926;28;20040;-80
2022/02/07 06:38:52;;;;;;;1.35;0.60;;;;;;;;;;5064878;28;20021;-79
2022/02/07 06:41:18;;;;;;;1.52;0.60;;;;;;;;;;5053097;28;20111;-80
2022/02/07 06:43:45;;;;;;;0.93;0.40;;;;;;;;;;5017672;28;20046;-80
2022/02/07 06:46:11;;;;;;;2.75;0.70;;;;;;;;;;5025502;28;20050;-80
2022/02/07 06:48:37;;;;;;;2.35;0.80;;;;;;;;;;5018885;28;20036;-80
2022/02/07 06:51:04;;;;;;;2.00;0.90;;;;;;;;;;5025450;28;20033;-79
2022/02/07 06:53:30;;;;;;;1.48;0.50;;;;;;;;;;5025655;28;20018;-81
2022/02/07 06:55:56;;;;;;;2.90;0.90;;;;;;;;;;5022299;28;20486;-81
2022/02/07 06:58:23;;;;;;;1.80;0.68;;;;;;;;;;5005593;28;20025;-79
2022/02/07 07:00:49;;;;;;;2.00;1.10;;;;;;;;;;5004463;28;20029;-79
2022/02/07 07:03:19;;;;;;;2.33;0.70;;;;;;;;;;5025310;28;20025;-80
2022/02/07 07:05:47;;;;;;;1.50;0.52;;;;;;;;;;5042856;28;20266;-78
2022/02/07 07:08:13;;;;;;;2.58;0.50;;;;;;;;;;5043995;28;20044;-79
2022/02/07 07:10:39;;;;;;;1.98;0.80;;;;;;;;;;5038881;28;20091;-79
2022/02/07 07:13:20;;;;;;;0.93;0.50;;;;;;;;;;5006503;28;20096;-79
2022/02/07 07:15:54;;;;;;;2.17;0.60;;;;;;;;;;5008303;28;20022;-79
2022/02/07 07:18:21;;;;;;;1.33;0.50;;;;;;;;;;5043902;28;20026;-80
2022/02/07 07:20:48;;;;;;;1.50;0.65;;;;;;;;;;5047446;28;20022;-79
2022/02/07 07:23:14;;;;;;;1.98;0.57;;;;;;;;;;5037586;28;20025;-79
2022/02/07 07:25:43;;;;;;;1.65;0.70;;;;;;;;;;5025736;28;20433;-79
2022/02/07 07:28:12;;;;;;;1.75;0.60;;;;;;;;;;5024061;28;20029;-78
2022/02/07 07:30:44;;;;;;;1.17;0.60;;;;;;;;;;5025265;28;20085;-79
2022/02/07 07:33:15;;;;;;;2.22;0.82;;;;;;;;;;5008300;28;20057;-80
2022/02/07 07:35:41;;;;;;;1.27;0.60;;;;;;;;;;5025648;28;20053;-79
2022/02/07 07:38:08;;;;;;;1.58;0.80;;;;;;;;;;5008074;28;20030;-80
2022/02/07 07:40:35;;;;;;;1.75;0.60;;;;;;;;;;5007013;28;20030;-80
2022/02/07 07:43:03;;;;;;;1.98;0.88;;;;;;;;;;5030827;28;20029;-81
2022/02/07 07:45:33;;;;;;;2.03;0.80;;;;;;;;;;5027014;28;20033;-81
2022/02/07 07:48:03;;;;;;;1.63;0.70;;;;;;;;;;5029727;28;20021;-80
2022/02/07 08:01:18;;;;;;;2.85;1.25;;;;;;;;;;5048898;28;20049;-80
2022/02/07 08:03:45;;;;;;;2.38;1.17;;;;;;;;;;5045548;28;20082;-80
2022/02/07 08:06:25;;;;;;;2.58;1.17;;;;;;;;;;5055695;28;20022;-81
2022/02/07 08:11:31;;;;;;;2.08;0.80;;;;;;;;;;5066446;28;20114;-82
2022/02/07 08:13:58;;;;;;;2.22;0.77;;;;;;;;;;5064053;28;20099;-82
2022/02/07 08:16:24;;;;;;;1.90;0.70;;;;;;;;;;5048255;28;20025;-81
2022/02/07 08:18:52;;;;;;;2.35;1.05;;;;;;;;;;5042492;28;20075;-80
2022/02/07 08:21:21;;;;;;;1.40;0.65;;;;;;;;;;5026136;28;20022;-81
2022/02/07 08:23:48;;;;;;;2.47;0.80;;;;;;;;;;5026034;28;20038;-82
2022/02/07 08:26:14;;;;;;;2.22;0.57;;;;;;;;;;5044217;28;20112;-81
2022/02/07 08:28:40;;;;;;;4.30;1.58;;;;;;;;;;5027455;28;20097;-81
2022/02/07 08:31:07;;;;;;;1.75;0.63;;;;;;;;;;5045013;28;20029;-81
2022/02/07 08:33:33;;;;;;;3.60;1.38;;;;;;;;;;5026665;28;20017;-81
2022/02/07 08:35:59;;;;;;;2.70;1.00;;;;;;;;;;5045158;28;20300;-83
2022/02/07 08:38:25;;;;;;;2.67;0.80;;;;;;;;;;5046683;28;20018;-84
2022/02/07 08:40:51;;;;;;;2.05;0.80;;;;;;;;;;5047387;28;20108;-83
2022/02/07 08:43:17;;;;;;;3.20;0.90;;;;;;;;;;5063402;28;20041;-84
2022/02/07 08:45:44;;;;;;;2.10;0.70;;;;;;;;;;5036784;28;20045;-83
2022/02/07 08:48:10;;;;;;;1.98;0.73;;;;;;;;;;5027561;28;20020;-84
2022/02/07 08:50:38;;;;;;;2.25;0.80;;;;;;;;;;5027239;28;20021;-82
2022/02/07 08:53:05;;;;;;;2.25;0.85;;;;;;;;;;5045277;28;20044;-84
2022/02/07 08:55:35;;;;;;;2.78;0.80;;;;;;;;;;5023420;28;20019;-82
2022/02/07 08:58:06;;;;;;;2.40;1.00;;;;;;;;;;5029963;28;20044;-83
2022/02/07 09:05:45;;;;;;;2.53;0.82;;;;;;;;;;5060069;28;20030;-83
2022/02/07 09:10:43;;;;;;;1.17;0.60;;;;;;;;;;5045669;28;20113;-84
2022/02/07 09:13:09;;;;;;;1.33;0.50;;;;;;;;;;5026645;28;20056;-82
2022/02/07 09:15:42;;;;;;;3.35;0.85;;;;;;;;;;5034515;28;20021;-82
2022/02/07 09:18:11;;;;;;;3.25;0.75;;;;;;;;;;5055104;28;20045;-83
2022/02/07 09:20:38;;;;;;;2.97;1.00;;;;;;;;;;5028287;28;20052;-84
2022/02/07 09:23:05;;;;;;;2.22;0.90;;;;;;;;;;5045399;28;20057;-82
2022/02/07 09:25:31;;;;;;;3.63;0.77;;;;;;;;;;5026868;28;20064;-83
2022/02/07 09:27:58;;;;;;;2.88;1.02;;;;;;;;;;5045695;28;20025;-84
2022/02/07 09:30:24;;;;;;;2.75;0.77;;;;;;;;;;5027001;28;20030;-83
2022/02/07 09:32:50;;;;;;;2.58;1.00;;;;;;;;;;5044890;28;20052;-83
2022/02/07 09:35:17;;;;;;;2.28;0.80;;;;;;;;;;5027658;28;20029;-83
2022/02/07 09:37:44;;;;;;;2.70;1.00;;;;;;;;;;5027948;28;20034;-83
2022/02/07 09:40:11;;;;;;;2.65;0.70;;;;;;;;;;5029498;28;20025;-83
2022/02/07 09:42:41;;;;;;;2.03;0.82;;;;;;;;;;5045373;28;20026;-85
2022/02/07 09:45:13;;;;;;;1.98;0.80;;;;;;;;;;5034562;28;20029;-82
2022/02/07 09:47:39;;;;;;;1.52;0.68;;;;;;;;;;5060980;28;20029;-84
2022/02/07 09:50:08;;;;;;;2.97;1.30;;;;;;;;;;5064794;28;20046;-83
2022/02/07 09:52:35;;;;;;;2.35;0.90;;;;;;;;;;5045984;28;20029;-83
2022/02/07 09:55:02;;;;;;;2.50;0.88;;;;;;;;;;5029667;28;20049;-83
2022/02/07 09:57:28;;;;;;;4.22;1.40;;;;;;;;;;5026414;28;20029;-83
2022/02/07 09:59:55;;;;;;;1.55;0.68;;;;;;;;;;5047121;28;20023;-82
2022/02/07 10:02:29;;;;;;;2.85;1.10;;;;;;;;;;5032814;28;20013;-83
2022/02/07 10:04:58;;;;;;;1.35;0.50;;;;;;;;;;5031590;28;20033;-82
2022/02/07 10:07:35;;;;;;;3.10;0.70;;;;;;;;;;5031242;28;20452;-83
2022/02/07 10:10:28;;;;;;;2.53;0.80;;;;;;;;;;5048882;28;20025;-82
2022/02/07 10:13:20;;;;;;;3.70;1.20;;;;;;;;;;5021931;28;20040;-83
2022/02/07 10:18:32;;;;;;;2.30;0.63;;;;;;;;;;5050056;28;20026;-82
2022/02/07 10:40:28;;;;;;;1.95;0.63;;;;;;;;;;5050976;28;20033;-81
2022/02/07 10:45:32;;;;;;;1.65;0.80;;;;;;;;;;5030619;28;20032;-81
2022/02/07 10:48:00;;;;;;;2.25;0.85;;;;;;;;;;5013007;28;20022;-81
2022/02/07 10:50:26;;;;;;;3.22;0.70;;;;;;;;;;5039012;28;20024;-81
2022/02/07 10:52:54;;;;;;;1.48;0.70;;;;;;;;;;5050568;28;20041;-82
2022/02/07 10:55:21;;;;;;;1.75;0.80;;;;;;;;;;5028133;28;20061;-81
2022/02/07 10:57:49;;;;;;;1.58;0.80;;;;;;;;;;5034104;28;20489;-84
2022/02/07 11:00:17;;;;;;;2.45;0.80;;;;;;;;;;5034669;28;20041;-81
2022/02/07 11:02:53;;;;;;;2.20;0.80;;;;;;;;;;5052832;28;20026;-83
2022/02/07 11:05:22;;;;;;;1.20;0.60;;;;;;;;;;5048706;28;20044;-82
2022/02/07 11:07:54;;;;;;;1.17;0.52;;;;;;;;;;5037057;28;20030;-80
2022/02/07 11:10:40;;;;;;;2.03;0.50;;;;;;;;;;5048474;28;20049;-82
2022/02/07 11:13:41;;;;;;;4.78;1.10;;;;;;;;;;5058769;28;20032;-83
2022/02/07 11:16:29;;;;;;;1.98;0.80;;;;;;;;;;5068613;28;20102;-82
2022/02/07 11:19:14;;;;;;;1.23;0.50;;;;;;;;;;5047595;28;20029;-81
2022/02/07 11:22:06;;;;;;;1.63;0.70;;;;;;;;;;5030728;28;20110;-82
2022/02/07 11:25:02;;;;;;;2.88;0.80;;;;;;;;;;5049217;28;20037;-82
2022/02/07 11:27:28;;;;;;;2.30;0.80;;;;;;;;;;5050900;28;20040;-82
2022/02/07 11:29:54;;;;;;;;;;;;;;;;;;5064082;28;20093;-81
2022/02/07 11:32:43;;;;;;;2.80;0.80;;;;;;;;;;5049728;28;19915;-82
2022/02/07 11:35:13;;;;;;;2.17;0.70;;;;;;;;;;5067755;28;20021;-83
2022/02/07 11:37:40;;;;;;;1.42;0.68;;;;;;;;;;5062926;28;20025;-81
2022/02/07 11:40:25;;;;;;;4.07;0.80;;;;;;;;;;5033881;28;20057;-81
2022/02/07 11:43:10;;;;;;;1.63;0.57;;;;;;;;;;5024585;28;20509;-82
2022/02/07 11:45:54;;;;;;;1.75;0.70;;;;;;;;;;5029689;28;20079;-82
2022/02/07 11:48:29;;;;;;;2.45;0.88;;;;;;;;;;5029034;28;20030;-81
2022/02/07 11:50:59;;;;;;;3.10;0.80;;;;;;;;;;5029771;28;20021;-83
2022/02/07 11:53:43;;;;;;;2.72;0.80;;;;;;;;;;5029521;28;20149;-82
2022/02/07 11:56:16;;;;;;;2.65;0.77;;;;;;;;;;5031514;28;20025;-83
2022/02/07 11:59:14;;;;;;;1.80;0.73;;;;;;;;;;5030365;28;20029;-83
2022/02/07 12:01:57;;;;;;;3.20;1.08;;;;;;;;;;5016617;28;20560;-82
2022/02/07 12:04:25;;;;;;;3.10;0.90;;;;;;;;;;5027917;28;20014;-83
2022/02/07 12:07:18;;;;;;;3.80;0.80;;;;;;;;;;5028866;28;20120;-83
2022/02/07 12:09:58;;;;;;;2.42;1.02;;;;;;;;;;4999233;28;20045;-83
2022/02/07 12:12:45;;;;;;;2.08;0.60;;;;;;;;;;5025712;28;20089;-82
2022/02/07 12:15:35;;;;;;;3.53;0.85;;;;;;;;;;5048694;28;20025;-81
2022/02/07 12:18:24;;;;;;;2.40;0.70;;;;;;;;;;5030589;28;20120;-82
2022/02/07 12:20:52;;;;;;;3.80;1.02;;;;;;;;;;5047521;28;20024;-84
2022/02/07 12:23:31;;;;;;;2.70;0.98;;;;;;;;;;5030388;28;20022;-82
2022/02/07 12:26:08;;;;;;;2.83;0.90;;;;;;;;;;5048745;28;20040;-84
2022/02/07 12:33:42;;;;;;;2.28;0.60;;;;;;;;;;5047569;28;20036;-82
2022/02/07 12:36:09;;;;;;;2.05;0.52;;;;;;;;;;5049470;28;20199;-82
2022/02/07 12:38:37;;;;;;;3.42;0.75;;;;;;;;;;5063378;28;20023;-82
2022/02/07 12:41:04;;;;;;;1.77;0.93;;;;;;;;;;5066361;28;20468;-80
2022/02/07 12:43:33;;;;;;;2.28;1.00;;;;;;;;;;5069252;28;20040;-82
2022/02/07 12:45:59;;;;;;;1.90;0.82;;;;;;;;;;5057809;28;20044;-82
2022/02/07 12:48:29;;;;;;;2.75;0.73;;;;;;;;;;5058226;28;20033;-81
2022/02/07 12:50:56;;;;;;;1.75;0.60;;;;;;;;;;5072401;28;20051;-81
2022/02/07 12:53:27;;;;;;;1.27;0.63;;;;;;;;;;5071064;28;20035;-82
2022/02/07 12:55:57;;;;;;;3.40;0.90;;;;;;;;;;5070113;28;20033;-81
2022/02/07 12:58:25;;;;;;;2.15;0.80;;;;;;;;;;5050667;28;20049;-81
2022/02/07 13:00:51;;;;;;;1.98;0.70;;;;;;;;;;5047237;28;20029;-80
2022/02/07 13:03:17;;;;;;;2.05;0.73;;;;;;;;;;5051020;28;20051;-83
2022/02/07 13:05:47;;;;;;;2.75;0.70;;;;;;;;;;5066891;28;20021;-82
2022/02/07 13:08:17;;;;;;;2.72;0.80;;;;;;;;;;5062783;28;20288;-80
2022/02/07 13:10:51;;;;;;;2.30;0.93;;;;;;;;;;5030022;28;20038;-83
2022/02/07 13:15:50;;;;;;;2.55;0.90;;;;;;;;;;5046790;28;20539;-83
2022/02/07 13:18:19;;;;;;;2.33;0.80;;;;;;;;;;5025241;28;20026;-82
2022/02/07 13:20:46;;;;;;;1.58;0.70;;;;;;;;;;5042695;28;20512;-81
2022/02/07 13:23:17;;;;;;;2.20;0.93;;;;;;;;;;5028498;28;20041;-82
2022/02/07 13:25:52;;;;;;;2.17;0.90;;;;;;;;;;5047134;28;20025;-83
2022/02/07 13:28:22;;;;;;;6.65;3.10;;;;;;;;;;5028694;28;20021;-82
2022/02/07 13:30:55;;;;;;;3.15;1.52;;;;;;;;;;5016163;28;20054;-82
2022/02/07 13:33:25;;;;;;;2.75;1.00;;;;;;;;;;5029809;28;20018;-82
2022/02/07 13:35:54;;;;;;;3.90;1.27;;;;;;;;;;5027619;28;20025;-81
2022/02/07 13:38:20;;;;;;;3.13;1.30;;;;;;;;;;5050637;28;20029;-83
2022/02/07 13:40:48;;;;;;;2.60;1.10;;;;;;;;;;5065555;28;20025;-80
2022/02/07 13:43:21;;;;;;;2.53;1.00;;;;;;;;;;5018613;28;20046;-82
2022/02/07 13:45:49;;;;;;;2.47;0.90;;;;;;;;;;4990209;28;20019;-81
2022/02/07 13:48:22;;;;;;;2.10;0.85;;;;;;;;;;4988638;28;20085;-81
2022/02/07 13:50:50;;;;;;;3.53;0.90;;;;;;;;;;5010150;28;20029;-82
2022/02/07 13:53:17;;;;;;;1.95;0.80;;;;;;;;;;5024702;28;20406;-82
2022/02/07 13:55:45;;;;;;;3.78;1.10;;;;;;;;;;5006630;28;20022;-83
2022/02/07 13:58:34;;;;;;;3.08;1.05;;;;;;;;;;5007786;28;20056;-84
2022/02/07 14:01:05;;;;;;;2.30;0.80;;;;;;;;;;5014500;28;20097;-83
2022/02/07 14:03:37;;;;;;;2.78;1.10;;;;;;;;;;5028776;28;20022;-82
2022/02/07 14:06:08;;;;;;;2.40;0.80;;;;;;;;;;5027510;28;20026;-82
2022/02/07 14:08:53;;;;;;;4.43;0.90;;;;;;;;;;5029497;28;20018;-83
2022/02/07 14:11:23;;;;;;;2.47;1.00;;;;;;;;;;5008393;28;20026;-81
2022/02/07 14:13:51;;;;;;;1.90;0.80;;;;;;;;;;5026113;28;20098;-81
2022/02/07 14:16:26;;;;;;;2.83;1.00;;;;;;;;;;5008583;28;20030;-82
2022/02/07 14:18:53;;;;;;;3.53;1.45;;;;;;;;;;5008386;28;20104;-81
2022/02/07 14:21:20;;;;;;;4.68;0.98;;;;;;;;;;5025564;28;20029;-82
2022/02/07 14:23:48;;;;;;;3.80;1.00;;;;;;;;;;5026070;28;20029;-83
2022/02/07 14:26:19;;;;;;;3.17;1.10;;;;;;;;;;4999821;28;20030;-82
2022/02/07 14:28:55;;;;;;;2.45;1.10;;;;;;;;;;5024405;28;20030;-82
2022/02/07 14:31:22;;;;;;;3.05;1.20;;;;;;;;;;5007494;28;20053;-82
2022/02/07 14:33:49;;;;;;;3.33;0.90;;;;;;;;;;5008087;28;20034;-82
2022/02/07 14:36:15;;;;;;;4.65;1.13;;;;;;;;;;5024986;28;20033;-83
2022/02/07 14:38:41;;;;;;;4.55;0.95;;;;;;;;;;5023915;28;20022;-82
2022/02/07 14:41:11;;;;;;;1.63;0.63;;;;;;;;;;5009240;28;20022;-82
2022/02/07 14:43:44;;;;;;;2.08;0.80;;;;;;;;;;5029507;28;20041;-82
2022/02/07 14:46:12;;;;;;;2.72;0.90;;;;;;;;;;5035082;28;20041;-82
2022/02/07 14:48:40;;;;;;;2.67;0.90;;;;;;;;;;5011266;28;20064;-81
2022/02/07 14:51:07;;;;;;;5.38;1.20;;;;;;;;;;5028337;28;20030;-81
2022/02/07 14:53:37;;;;;;;5.03;0.98;;;;;;;;;;5010719;28;20034;-83
2022/02/07 14:56:03;;;;;;;1.95;0.80;;;;;;;;;;5029379;28;20029;-82
2022/02/07 14:58:30;;;;;;;3.33;0.90;;;;;;;;;;5009870;28;20053;-83
2022/02/07 15:00:56;;;;;;;2.78;0.85;;;;;;;;;;5011092;28;20037;-81
2022/02/07 15:03:23;;;;;;;5.13;1.13;;;;;;;;;;5028058;28;20030;-82
2022/02/07 15:05:53;;;;;;;3.45;1.10;;;;;;;;;;5011046;28;20042;-80
2022/02/07 15:08:20;;;;;;;4.20;1.00;;;;;;;;;;5007375;28;20026;-83
2022/02/07 15:10:46;;;;;;;4.25;1.00;;;;;;;;;;5008142;28;20042;-81
2022/02/07 15:13:12;;;;;;;2.97;0.93;;;;;;;;;;5011294;28;20034;-81
2022/02/07 15:15:38;;;;;;;3.45;0.98;;;;;;;;;;5011247;28;20030;-82
2022/02/07 15:18:07;;;;;;;2.60;1.00;;;;;;;;;;5010593;28;20033;-82
2022/02/07 15:20:37;;;;;;;3.95;0.90;;;;;;;;;;5028082;28;20010;-82
2022/02/07 15:23:03;;;;;;;3.38;1.02;;;;;;;;;;5042822;28;20088;-82
2022/02/07 15:25:35;;;;;;;3.50;1.00;;;;;;;;;;5011480;28;20025;-82
2022/02/07 15:28:04;;;;;;;3.33;1.20;;;;;;;;;;5011018;28;20041;-82
2022/02/07 15:30:35;;;;;;;3.85;1.05;;;;;;;;;;5010804;28;20026;-81
2022/02/07 15:33:04;;;;;;;3.53;1.00;;;;;;;;;;5010054;28;20053;-81
2022/02/07 15:35:30;;;;;;;5.38;1.08;;;;;;;;;;5011044;28;20050;-83
2022/02/07 15:37:56;;;;;;;3.70;0.90;;;;;;;;;;5027445;28;20036;-83
2022/02/07 15:40:22;;;;;;;3.47;1.20;;;;;;;;;;5010370;28;20026;-82
2022/02/07 15:42:49;;;;;;;4.45;1.23;;;;;;;;;;5030681;28;20037;-82
2022/02/07 15:45:20;;;;;;;3.65;1.08;;;;;;;;;;5047518;28;20017;-82
2022/02/07 15:47:47;;;;;;;3.42;1.00;;;;;;;;;;5029796;28;20090;-82
2022/02/07 15:50:14;;;;;;;5.65;1.38;;;;;;;;;;5030055;28;20025;-81
2022/02/07 15:52:41;;;;;;;5.97;1.45;;;;;;;;;;5046364;28;20040;-79
2022/02/07 15:55:08;;;;;;;4.22;1.33;;;;;;;;;;5045068;28;20029;-82
2022/02/07 15:57:34;;;;;;;4.85;1.30;;;;;;;;;;5028390;28;20034;-83
2022/02/07 16:00:01;;;;;;;4.65;1.08;;;;;;;;;;5028743;28;20028;-82
2022/02/07 16:02:31;;;;;;;3.67;1.10;;;;;;;;;;5046585;28;20128;-82
2022/02/07 16:05:00;;;;;;;4.72;1.33;;;;;;;;;;5030338;28;20053;-81
2022/02/07 16:07:27;;;;;;;3.35;1.00;;;;;;;;;;5067515;28;20029;-83
2022/02/07 16:09:54;;;;;;;3.65;1.08;;;;;;;;;;5064247;28;20025;-81
2022/02/07 16:12:20;;;;;;;4.47;1.10;;;;;;;;;;5049845;28;20039;-84
2022/02/07 16:14:49;;;;;;;3.33;1.23;;;;;;;;;;5026316;28;20025;-82
2022/02/07 16:17:15;;;;;;;2.33;0.80;;;;;;;;;;5027739;28;20089;-82
2022/02/07 16:19:41;;;;;;;6.95;1.40;;;;;;;;;;5047175;28;20042;-83
2022/02/07 16:22:08;;;;;;;3.10;0.98;;;;;;;;;;5049541;28;20439;-82
2022/02/07 16:24:35;;;;;;;3.00;0.95;;;;;;;;;;5046617;28;20249;-82
2022/02/07 16:27:02;;;;;;;3.13;1.00;;;;;;;;;;5027769;28;20029;-82
2022/02/07 16:29:28;;;;;;;3.22;1.08;;;;;;;;;;5029170;28;20025;-81
2022/02/07 16:31:55;;;;;;;3.50;1.00;;;;;;;;;;5028414;28;20034;-83
2022/02/07 16:34:23;;;;;;;3.92;1.90;;;;;;;;;;5046457;28;20108;-81
2022/02/07 16:36:50;;;;;;;3.45;1.10;;;;;;;;;;5046735;28;20417;-82
2022/02/07 16:39:17;;;;;;;3.00;1.17;;;;;;;;;;5047149;28;20022;-78
2022/02/07 16:41:44;;;;;;;4.38;1.60;;;;;;;;;;5029766;28;20362;-81
2022/02/07 16:44:12;;;;;;;7.18;3.20;;;;;;;;;;5046770;28;20038;-81
2022/02/07 16:46:49;;;;;;;4.47;1.70;;;;;;;;;;5028430;28;20040;-81
2022/02/07 16:49:19;;;;;;;5.25;2.30;;;;;;;;;;5028595;28;20022;-82
2022/02/07 16:51:46;;;;;;;3.38;1.63;;;;;;;;;;5046784;28;20034;-81
2022/02/07 16:54:12;;;;;;;5.65;2.42;;;;;;;;;;5046381;28;20026;-82
2022/02/07 16:56:39;;;;;;;7.25;2.90;;;;;;;;;;5028159;28;20042;-82
2022/02/07 16:59:06;;;;;;;3.90;1.70;;;;;;;;;;5028197;28;20136;-82
2022/02/07 17:01:34;;;;;;;16.45;10.15;;;;;;;;;;5028457;28;20049;-83
2022/02/07 17:04:00;;;;;;;9.35;4.00;;;;;;;;;;5045847;28;20021;-83
2022/02/07 17:06:27;;;;;;;6.63;2.90;;;;;;;;;;5028251;28;20033;-84
2022/02/07 17:08:54;;;;;;;5.15;1.88;;;;;;;;;;5045699;28;20032;-82
2022/02/07 17:11:22;;;;;;;5.82;2.30;;;;;;;;;;5030029;28;20022;-83
2022/02/07 17:13:48;;;;;;;3.95;1.05;;;;;;;;;;5031220;28;20063;-83
2022/02/07 17:16:15;;;;;;;3.70;1.42;;;;;;;;;;5031042;28;20032;-82
2022/02/07 17:18:44;;;;;;;3.13;1.02;;;;;;;;;;5048638;28;20026;-82
2022/02/07 17:21:10;;;;;;;3.50;1.30;;;;;;;;;;5038651;28;20032;-82